createdAt,value
2023-01-09T00:04:31.197Z,64.34
2023-01-09T00:09:33.824Z,63.98
2023-01-09T00:14:36.482Z,62.79
2023-01-09T00:19:39.304Z,60.83
2023-01-09T00:24:41.973Z,62.55
2023-01-09T00:29:48.016Z,62.04
2023-01-09T00:34:51.064Z,62.16
2023-01-09T00:39:53.858Z,61.53
2023-01-09T00:44:59.407Z,62.33
2023-01-09T00:50:07.681Z,63.31
2023-01-09T00:55:10.877Z,62.85
2023-01-09T01:00:15.486Z,63.33
2023-01-09T01:05:36.739Z,64.05
2023-01-09T01:10:39.963Z,65.37
2023-01-09T01:15:43.617Z,64.71
2023-01-09T01:20:46.412Z,66.66
2023-01-09T01:25:49.641Z,68.16
2023-01-09T01:30:52.402Z,71.34
2023-01-09T01:36:05.700Z,72.90
2023-01-09T01:41:08.464Z,70.78
2023-01-09T01:46:11.305Z,68.22
2023-01-09T01:51:17.281Z,66.17
2023-01-09T01:56:43.661Z,62.04
2023-01-09T02:01:52.687Z,62.22
2023-01-09T02:06:57.235Z,61.24
2023-01-09T02:12:01.306Z,60.59
2023-01-09T02:17:06.593Z,60.73
2023-01-09T02:22:18.061Z,61.65
2023-01-09T02:27:20.691Z,61.03
2023-01-09T02:32:38.339Z,60.35
2023-01-09T02:37:59.099Z,60.87
2023-01-09T02:43:03.000Z,60.73
2023-01-09T02:48:05.951Z,60.43
2023-01-09T02:53:34.416Z,59.79
2023-01-09T02:58:57.085Z,59.31
2023-01-09T03:04:21.734Z,59.62
2023-01-09T03:09:28.023Z,59.66
2023-01-09T03:14:32.718Z,58.90
2023-01-09T03:19:36.135Z,59.07
2023-01-09T03:24:39.342Z,59.93
2023-01-09T03:29:42.105Z,60.77
2023-01-09T03:34:44.784Z,60.49
2023-01-09T03:39:47.601Z,61.17
2023-01-09T03:44:51.277Z,60.69
2023-01-09T03:49:53.990Z,58.70
2023-01-09T03:54:56.606Z,58.93
2023-01-09T03:59:59.280Z,59.06
2023-01-09T04:05:02.151Z,58.47
2023-01-09T04:10:05.809Z,58.48
2023-01-09T04:15:08.850Z,58.80
2023-01-09T04:20:12.198Z,59.06
2023-01-09T04:25:14.900Z,59.75
2023-01-09T04:30:18.000Z,60.16
2023-01-09T04:35:21.089Z,61.07
2023-01-09T04:40:23.809Z,60.83
2023-01-09T04:45:26.497Z,57.90
2023-01-09T04:50:31.270Z,57.29
2023-01-09T04:55:34.226Z,56.33
2023-01-09T05:00:37.375Z,55.70
2023-01-09T05:05:40.411Z,55.64
2023-01-09T05:10:43.095Z,56.50
2023-01-09T05:15:45.808Z,56.51
2023-01-09T05:20:48.620Z,56.48
2023-01-09T05:25:51.335Z,55.98
2023-01-09T05:30:54.061Z,56.66
2023-01-09T05:35:56.740Z,56.37
2023-01-09T05:40:59.514Z,56.97
2023-01-09T05:46:02.458Z,57.32
2023-01-09T05:51:05.374Z,57.73
2023-01-09T05:56:08.138Z,57.31
2023-01-09T06:01:10.913Z,57.43
2023-01-09T06:06:13.893Z,56.97
2023-01-09T06:11:16.794Z,56.88
2023-01-09T06:16:19.501Z,56.32
2023-01-09T06:21:22.231Z,56.55
2023-01-09T06:26:26.192Z,56.28
2023-01-09T06:31:29.193Z,56.15
2023-01-09T06:36:31.934Z,56.19
2023-01-09T06:41:34.622Z,55.97
2023-01-09T06:46:37.301Z,55.82
2023-01-09T06:51:40.063Z,55.65
2023-01-09T06:56:42.793Z,56.04
2023-01-09T07:01:45.575Z,56.06
2023-01-09T07:06:49.496Z,56.27
2023-01-09T07:11:52.250Z,56.43
2023-01-09T07:16:55.071Z,56.25
2023-01-09T07:21:57.925Z,56.31
2023-01-09T07:27:00.770Z,57.84
2023-01-09T07:32:03.981Z,58.33
2023-01-09T07:37:06.502Z,58.51
2023-01-09T07:42:09.136Z,57.50
2023-01-09T07:47:12.304Z,57.02
2023-01-09T07:52:15.311Z,56.47
2023-01-09T07:57:17.956Z,55.98
2023-01-09T08:02:20.835Z,56.87
2023-01-09T08:07:23.625Z,57.97
2023-01-09T08:12:26.425Z,58.12
2023-01-09T08:17:29.088Z,57.33
2023-01-09T08:22:31.811Z,56.89
2023-01-09T08:27:34.619Z,56.48
2023-01-09T08:32:37.902Z,56.99
2023-01-09T08:37:44.666Z,57.79
2023-01-09T08:43:05.837Z,59.02
2023-01-09T08:48:08.703Z,58.85
2023-01-09T08:53:11.933Z,57.74
2023-01-09T08:58:14.893Z,57.56
2023-01-09T09:03:18.060Z,56.55
2023-01-09T09:08:20.729Z,56.35
2023-01-09T09:13:23.624Z,55.85
2023-01-09T09:18:26.566Z,55.80
2023-01-09T09:23:29.349Z,55.31
2023-01-09T09:28:32.114Z,54.81
2023-01-09T09:33:34.777Z,54.95
2023-01-09T09:38:37.505Z,55.23
2023-01-09T09:44:07.228Z,55.84
2023-01-09T09:49:17.779Z,57.01
2023-01-09T09:54:26.558Z,57.60
2023-01-09T09:59:33.694Z,58.42
2023-01-09T10:04:41.717Z,59.19
2023-01-09T10:09:55.747Z,59.71
2023-01-09T10:15:01.339Z,58.86
2023-01-09T10:20:31.559Z,58.87
2023-01-09T10:25:46.177Z,58.21
2023-01-09T10:31:09.434Z,57.46
2023-01-09T10:36:24.778Z,57.22
2023-01-09T10:42:05.029Z,56.55
2023-01-09T10:47:27.180Z,56.39
2023-01-09T10:52:35.159Z,56.29
2023-01-09T10:57:46.035Z,56.41
2023-01-09T11:02:49.225Z,55.88
2023-01-09T11:07:57.902Z,56.19
2023-01-09T11:13:23.593Z,56.10
2023-01-09T11:18:26.575Z,55.64
2023-01-09T11:23:33.807Z,55.79
2023-01-09T11:28:36.545Z,56.60
2023-01-09T11:33:44.179Z,56.47
2023-01-09T11:38:58.135Z,56.94
2023-01-09T11:44:01.187Z,57.19
2023-01-09T11:49:23.206Z,56.81
2023-01-09T11:54:32.216Z,56.69
2023-01-09T11:59:34.968Z,56.99
2023-01-09T12:04:56.454Z,57.90
2023-01-09T12:10:11.240Z,58.95
2023-01-09T12:15:48.836Z,59.05
2023-01-09T12:21:03.482Z,58.92
2023-01-09T12:26:25.910Z,57.97
2023-01-09T12:31:42.740Z,59.01
2023-01-09T12:37:11.696Z,58.84
2023-01-09T12:42:37.787Z,59.35
2023-01-09T12:47:50.641Z,60.02
2023-01-09T12:53:27.911Z,59.72
2023-01-09T12:58:40.174Z,61.02
2023-01-09T13:03:50.854Z,62.05
2023-01-09T13:09:17.044Z,62.51
2023-01-09T13:14:38.071Z,61.95
2023-01-09T13:19:40.964Z,60.66
2023-01-09T13:25:04.366Z,59.35
2023-01-09T13:30:15.999Z,57.98
2023-01-09T13:35:18.512Z,57.60
2023-01-09T13:40:21.171Z,57.42
2023-01-09T13:45:28.779Z,56.24
2023-01-09T13:50:31.679Z,56.59
2023-01-09T13:55:36.417Z,56.54
2023-01-09T14:00:39.279Z,55.35
2023-01-09T14:05:42.058Z,55.41
2023-01-09T14:10:44.688Z,54.64
2023-01-09T14:15:49.940Z,54.92
2023-01-09T14:26:24.239Z,55.06
2023-01-09T14:31:32.890Z,55.21
2023-01-09T14:36:36.532Z,54.71
2023-01-09T14:42:02.832Z,55.24
2023-01-09T14:47:11.230Z,54.49
2023-01-09T14:52:24.488Z,54.98
2023-01-09T14:57:28.569Z,54.33
2023-01-09T15:02:34.744Z,54.08
2023-01-09T15:07:44.783Z,54.27
2023-01-09T15:12:48.695Z,55.36
2023-01-09T15:18:13.641Z,54.38
2023-01-09T15:23:30.794Z,54.58
2023-01-09T15:28:33.603Z,54.47
2023-01-09T15:33:39.496Z,54.39
2023-01-09T15:38:43.024Z,53.94
2023-01-09T15:43:46.293Z,54.33
2023-01-09T15:48:54.232Z,54.39
2023-01-09T15:53:58.953Z,53.98
2023-01-09T15:59:02.083Z,54.53
2023-01-09T16:04:07.821Z,55.41
2023-01-09T16:09:21.459Z,55.53
2023-01-09T16:14:25.591Z,54.85
2023-01-09T16:19:58.499Z,54.33
2023-01-09T16:25:22.327Z,55.08
2023-01-09T16:30:28.449Z,54.37
2023-01-09T16:35:31.326Z,53.95
2023-01-09T16:40:36.487Z,53.93
2023-01-09T16:45:42.720Z,54.76
2023-01-09T16:50:45.702Z,54.93
2023-01-09T16:55:48.688Z,54.16
2023-01-09T17:00:51.702Z,54.95
2023-01-09T17:06:00.614Z,53.91
2023-01-09T17:11:04.379Z,55.47
2023-01-09T17:16:07.764Z,54.12
2023-01-09T17:21:16.833Z,55.04
2023-01-09T17:26:40.384Z,55.31
2023-01-09T17:31:42.998Z,55.49
2023-01-09T17:36:45.916Z,55.38
2023-01-09T17:41:48.866Z,55.39
2023-01-09T17:46:51.598Z,55.86
2023-01-09T17:51:54.402Z,56.33
2023-01-09T17:56:57.193Z,56.48
2023-01-09T18:01:59.918Z,56.29
2023-01-09T18:07:02.769Z,56.03
2023-01-09T18:12:05.577Z,56.76
2023-01-09T18:17:10.400Z,57.00
2023-01-09T18:22:13.193Z,56.65
2023-01-09T18:27:16.002Z,56.79
2023-01-09T18:32:18.862Z,56.53
2023-01-09T18:37:21.670Z,57.17
2023-01-09T18:42:24.401Z,57.20
2023-01-09T18:47:27.124Z,57.09
2023-01-09T18:52:29.877Z,57.41
2023-01-09T18:57:32.930Z,57.79
2023-01-09T19:02:35.647Z,57.86
2023-01-09T19:07:38.408Z,58.77
2023-01-09T19:12:41.332Z,59.12
2023-01-09T19:17:43.948Z,58.21
2023-01-09T19:22:46.639Z,59.26
2023-01-09T19:27:49.298Z,59.49
2023-01-09T19:32:52.272Z,59.19
2023-01-09T19:37:54.945Z,59.57
2023-01-09T19:42:58.790Z,60.08
2023-01-09T19:48:01.581Z,60.06
2023-01-09T19:53:04.297Z,60.77
2023-01-09T19:58:07.255Z,60.18
2023-01-09T20:03:09.929Z,60.67
2023-01-09T20:08:12.615Z,61.20
2023-01-09T20:13:15.364Z,61.23
2023-01-09T20:18:18.053Z,60.41
2023-01-09T20:23:23.410Z,60.72
2023-01-09T20:28:26.896Z,60.14
2023-01-09T20:33:29.571Z,60.11
2023-01-09T20:38:33.533Z,59.49
2023-01-09T20:43:36.553Z,58.19
2023-01-09T20:48:39.305Z,59.05
2023-01-09T20:53:46.455Z,58.78
2023-01-09T20:58:49.271Z,58.82
2023-01-09T21:03:53.538Z,58.95
2023-01-09T21:08:56.551Z,59.09
2023-01-09T21:14:00.201Z,58.74
2023-01-09T21:19:02.868Z,58.73
2023-01-09T21:24:07.903Z,59.43
2023-01-09T21:29:13.372Z,59.42
2023-01-09T21:34:20.325Z,59.37
2023-01-09T21:39:22.979Z,59.48
2023-01-09T21:44:43.921Z,59.39
2023-01-09T21:49:46.683Z,59.22
2023-01-09T21:54:49.447Z,59.38
2023-01-09T21:59:52.145Z,58.80
2023-01-09T22:05:00.428Z,59.16
2023-01-09T22:10:03.239Z,59.15
2023-01-09T22:15:06.865Z,60.18
2023-01-09T22:20:10.460Z,60.19
2023-01-09T22:25:13.179Z,59.69
2023-01-09T22:30:16.125Z,59.17
2023-01-09T22:35:18.739Z,59.50
2023-01-09T22:40:21.449Z,58.96
2023-01-09T22:45:24.233Z,58.78
2023-01-09T22:50:26.917Z,59.57
2023-01-09T22:55:29.629Z,59.43
2023-01-09T23:00:32.887Z,60.77
2023-01-09T23:05:35.557Z,59.59
2023-01-09T23:10:38.629Z,59.55
2023-01-09T23:15:41.392Z,60.07
2023-01-09T23:20:58.513Z,59.54
2023-01-09T23:26:05.203Z,58.85
2023-01-09T23:31:07.879Z,58.72
2023-01-09T23:36:10.677Z,58.54
2023-01-09T23:41:13.435Z,59.40
2023-01-09T23:46:16.261Z,59.31
2023-01-09T23:51:19.336Z,59.16
2023-01-09T23:56:22.060Z,59.99
